QFA12 YMML-YSSY
Flight info
| Callsign | QFA12 |
|---|---|
| Flight time | 1h 13m |
| Altitude | 41000 |
| Route | DCT ML H129 DOSEL Y59 RIVET RIVET4 |
| Aircraft | A332/H-SDE3GHIJ2J3J5M1RVWXY/LB2D1 |
Departure
| Time | 2026-05-08 03:58 |
|---|---|
| Airport | Melbourne Airport (YMML) |
Arrival
| Time | 2026-05-08 05:11 |
|---|---|
| Airport | Sydney Kingsford Smith International Airport (YSSY) |
| Time | Latitude | Longitude | Altitude | Speed | Heading |
|---|---|---|---|---|---|
| 2026-05-08 03:38 | -37.66891 | 144.84349 | 372 ft | 0 kts | 82° |
| 2026-05-08 03:49 | -37.66893 | 144.84336 | 378 ft | 3 kts | 55° |
| 2026-05-08 03:50 | -37.66907 | 144.84320 | 377 ft | 3 kts | 2° |
| 2026-05-08 03:50 | -37.66916 | 144.84319 | 375 ft | 0 kts | 339° |
| 2026-05-08 03:51 | -37.66913 | 144.84318 | 375 ft | 0 kts | 339° |
| 2026-05-08 03:53 | -37.66902 | 144.84309 | 379 ft | 2 kts | 320° |
| 2026-05-08 03:53 | -37.66880 | 144.84275 | 376 ft | 8 kts | 311° |
| 2026-05-08 03:54 | -37.66829 | 144.84222 | 377 ft | 10 kts | 326° |
| 2026-05-08 03:54 | -37.66780 | 144.84195 | 379 ft | 7 kts | 348° |
| 2026-05-08 03:54 | -37.66733 | 144.84202 | 378 ft | 8 kts | 21° |
| 2026-05-08 03:54 | -37.66698 | 144.84268 | 375 ft | 8 kts | 85° |
| 2026-05-08 03:55 | -37.66669 | 144.84357 | 374 ft | 12 kts | 47° |
| 2026-05-08 03:55 | -37.66605 | 144.84379 | 370 ft | 12 kts | 4° |
| 2026-05-08 03:55 | -37.66522 | 144.84419 | 367 ft | 10 kts | 54° |
| 2026-05-08 03:55 | -37.66502 | 144.84533 | 361 ft | 19 kts | 81° |
| 2026-05-08 03:56 | -37.66482 | 144.84694 | 351 ft | 0 kts | 81° |
| 2026-05-08 03:56 | -37.66482 | 144.84696 | 350 ft | 0 kts | 81° |
| 2026-05-08 03:56 | -37.66451 | 144.84768 | 333 ft | 17 kts | 41° |
| 2026-05-08 03:56 | -37.66339 | 144.84790 | 331 ft | 8 kts | 359° |
| 2026-05-08 03:57 | -37.66337 | 144.84790 | 332 ft | 0 kts | 359° |
| 2026-05-08 03:57 | -37.66266 | 144.84781 | 330 ft | 22 kts | 346° |
| 2026-05-08 03:57 | -37.66219 | 144.84739 | 333 ft | 1 kts | 280° |
| 2026-05-08 03:57 | -37.66217 | 144.84698 | 337 ft | 22 kts | 274° |
| 2026-05-08 03:58 | -37.66190 | 144.84204 | 377 ft | 89 kts | 274° |
| 2026-05-08 03:58 | -37.66112 | 144.83181 | 528 ft | 137 kts | 273° |
| 2026-05-08 03:58 | -37.66008 | 144.81949 | 1258 ft | 143 kts | 271° |
| 2026-05-08 03:58 | -37.65927 | 144.80712 | 2135 ft | 145 kts | 268° |
| 2026-05-08 03:59 | -37.65859 | 144.79305 | 2593 ft | 175 kts | 267° |
| 2026-05-08 03:59 | -37.65794 | 144.77626 | 2956 ft | 212 kts | 266° |
| 2026-05-08 03:59 | -37.65710 | 144.75639 | 3577 ft | 235 kts | 268° |
| 2026-05-08 03:59 | -37.65579 | 144.73523 | 4445 ft | 246 kts | 269° |
| 2026-05-08 04:00 | -37.65452 | 144.71330 | 5388 ft | 254 kts | 268° |
| 2026-05-08 04:00 | -37.65322 | 144.69107 | 6343 ft | 260 kts | 268° |
| 2026-05-08 04:00 | -37.64904 | 144.66832 | 7338 ft | 277 kts | 292° |
| 2026-05-08 04:00 | -37.63528 | 144.65048 | 8352 ft | 296 kts | 323° |
| 2026-05-08 04:01 | -37.61583 | 144.64022 | 9320 ft | 309 kts | 339° |
| 2026-05-08 04:01 | -37.59501 | 144.63275 | 10215 ft | 319 kts | 341° |
| 2026-05-08 04:01 | -37.57267 | 144.62576 | 10679 ft | 344 kts | 348° |
| 2026-05-08 04:01 | -37.54803 | 144.62669 | 11220 ft | 365 kts | 14° |
| 2026-05-08 04:02 | -37.52518 | 144.64101 | 12020 ft | 369 kts | 41° |
| 2026-05-08 04:02 | -37.50797 | 144.66487 | 12925 ft | 369 kts | 57° |
| 2026-05-08 04:02 | -37.49288 | 144.69124 | 13810 ft | 373 kts | 60° |
| 2026-05-08 04:02 | -37.47923 | 144.71875 | 14607 ft | 376 kts | 62° |
| 2026-05-08 04:03 | -37.46562 | 144.74713 | 15392 ft | 381 kts | 62° |
| 2026-05-08 04:03 | -37.43842 | 144.80573 | 16902 ft | 392 kts | 63° |
| 2026-05-08 04:03 | -37.42469 | 144.83571 | 17695 ft | 397 kts | 63° |
| 2026-05-08 04:04 | -37.41079 | 144.86603 | 18436 ft | 402 kts | 63° |
| 2026-05-08 04:04 | -37.39692 | 144.89629 | 19122 ft | 406 kts | 63° |
| 2026-05-08 04:04 | -37.38266 | 144.92729 | 19803 ft | 410 kts | 63° |
| 2026-05-08 04:04 | -37.36824 | 144.95859 | 20479 ft | 414 kts | 63° |
| 2026-05-08 04:05 | -37.35369 | 144.99008 | 21139 ft | 418 kts | 63° |
| 2026-05-08 04:05 | -37.33901 | 145.02183 | 21799 ft | 421 kts | 63° |
| 2026-05-08 04:05 | -37.32439 | 145.05341 | 22443 ft | 425 kts | 62° |
| 2026-05-08 04:05 | -37.30941 | 145.08573 | 23069 ft | 429 kts | 62° |
| 2026-05-08 04:06 | -37.29432 | 145.11827 | 23708 ft | 432 kts | 62° |
| 2026-05-08 04:06 | -37.27903 | 145.15120 | 24238 ft | 436 kts | 62° |
| 2026-05-08 04:06 | -37.26368 | 145.18423 | 24739 ft | 439 kts | 62° |
| 2026-05-08 04:06 | -37.24837 | 145.21718 | 25236 ft | 443 kts | 62° |
| 2026-05-08 04:07 | -37.23274 | 145.25076 | 25744 ft | 445 kts | 62° |
| 2026-05-08 04:07 | -37.21706 | 145.28439 | 26255 ft | 448 kts | 62° |
| 2026-05-08 04:07 | -37.20115 | 145.31849 | 26737 ft | 451 kts | 63° |
| 2026-05-08 04:07 | -37.18542 | 145.35216 | 27215 ft | 454 kts | 63° |
| 2026-05-08 04:08 | -37.16910 | 145.38638 | 27700 ft | 458 kts | 59° |
| 2026-05-08 04:08 | -37.15112 | 145.41957 | 28164 ft | 462 kts | 58° |
| 2026-05-08 04:08 | -37.13258 | 145.45274 | 28631 ft | 466 kts | 58° |
| 2026-05-08 04:08 | -37.11366 | 145.48598 | 29070 ft | 469 kts | 57° |
| 2026-05-08 04:09 | -37.09446 | 145.51937 | 29545 ft | 472 kts | 57° |
| 2026-05-08 04:09 | -37.07512 | 145.55287 | 30037 ft | 475 kts | 57° |
| 2026-05-08 04:09 | -37.05592 | 145.58606 | 30461 ft | 478 kts | 57° |
| 2026-05-08 04:09 | -37.03626 | 145.62009 | 30840 ft | 481 kts | 57° |
| 2026-05-08 04:10 | -37.01654 | 145.65423 | 31215 ft | 484 kts | 57° |
| 2026-05-08 04:10 | -36.99695 | 145.68816 | 31559 ft | 488 kts | 57° |
| 2026-05-08 04:10 | -36.97702 | 145.72266 | 31925 ft | 490 kts | 57° |
| 2026-05-08 04:10 | -36.95693 | 145.75739 | 32371 ft | 491 kts | 57° |
| 2026-05-08 04:11 | -36.93688 | 145.79201 | 32944 ft | 489 kts | 57° |
| 2026-05-08 04:11 | -36.91694 | 145.82641 | 33451 ft | 489 kts | 57° |
| 2026-05-08 04:11 | -36.89688 | 145.86098 | 33947 ft | 488 kts | 57° |
| 2026-05-08 04:11 | -36.87718 | 145.89492 | 34420 ft | 487 kts | 57° |
| 2026-05-08 04:12 | -36.85726 | 145.92919 | 34879 ft | 485 kts | 57° |
| 2026-05-08 04:12 | -36.83742 | 145.96329 | 35323 ft | 483 kts | 57° |
| 2026-05-08 04:12 | -36.81787 | 145.99687 | 35731 ft | 482 kts | 57° |
| 2026-05-08 04:12 | -36.79813 | 146.03073 | 36137 ft | 481 kts | 57° |
| 2026-05-08 04:13 | -36.77843 | 146.06451 | 36524 ft | 481 kts | 57° |
| 2026-05-08 04:13 | -36.75867 | 146.09835 | 36837 ft | 482 kts | 57° |
| 2026-05-08 04:13 | -36.73912 | 146.13182 | 37134 ft | 483 kts | 57° |
| 2026-05-08 04:13 | -36.71929 | 146.16573 | 37484 ft | 483 kts | 57° |
| 2026-05-08 04:14 | -36.69949 | 146.19954 | 37859 ft | 482 kts | 56° |
| 2026-05-08 04:14 | -36.67965 | 146.23337 | 38245 ft | 481 kts | 56° |
| 2026-05-08 04:14 | -36.65989 | 146.26702 | 38616 ft | 480 kts | 56° |
| 2026-05-08 04:14 | -36.64035 | 146.30028 | 38958 ft | 480 kts | 56° |
| 2026-05-08 04:15 | -36.62050 | 146.33404 | 39219 ft | 480 kts | 56° |
| 2026-05-08 04:15 | -36.60100 | 146.36720 | 39469 ft | 479 kts | 55° |
| 2026-05-08 04:15 | -36.58129 | 146.40063 | 39724 ft | 479 kts | 55° |
| 2026-05-08 04:15 | -36.56150 | 146.43420 | 39962 ft | 480 kts | 55° |
| 2026-05-08 04:16 | -36.54163 | 146.46784 | 40197 ft | 480 kts | 54° |
| 2026-05-08 04:16 | -36.52205 | 146.50097 | 40429 ft | 480 kts | 54° |
| 2026-05-08 04:16 | -36.50224 | 146.53445 | 40665 ft | 480 kts | 54° |
| 2026-05-08 04:16 | -36.48234 | 146.56807 | 40862 ft | 481 kts | 54° |
| 2026-05-08 04:17 | -36.46239 | 146.60173 | 41031 ft | 482 kts | 54° |
| 2026-05-08 04:17 | -36.44267 | 146.63497 | 41170 ft | 485 kts | 53° |
| 2026-05-08 04:17 | -36.40210 | 146.70326 | 41185 ft | 495 kts | 53° |
| 2026-05-08 04:18 | -36.36128 | 146.77182 | 41184 ft | 495 kts | 53° |
| 2026-05-08 04:18 | -36.32710 | 146.82912 | 41184 ft | 495 kts | 53° |
| 2026-05-08 04:19 | -36.28595 | 146.89798 | 41183 ft | 496 kts | 53° |
| 2026-05-08 04:19 | -36.24500 | 146.96637 | 41184 ft | 497 kts | 53° |
| 2026-05-08 04:20 | -36.20367 | 147.03528 | 41180 ft | 497 kts | 53° |
| 2026-05-08 04:20 | -36.16266 | 147.10350 | 41185 ft | 497 kts | 53° |
| 2026-05-08 04:21 | -36.12122 | 147.17227 | 41186 ft | 498 kts | 53° |
| 2026-05-08 04:21 | -36.07972 | 147.24101 | 41177 ft | 498 kts | 53° |
| 2026-05-08 04:22 | -36.03834 | 147.30942 | 41190 ft | 499 kts | 53° |
| 2026-05-08 04:22 | -35.99660 | 147.37831 | 41186 ft | 499 kts | 53° |
| 2026-05-08 04:23 | -35.95503 | 147.44673 | 41188 ft | 500 kts | 53° |
| 2026-05-08 04:23 | -35.91306 | 147.51572 | 41189 ft | 501 kts | 53° |
| 2026-05-08 04:24 | -35.87138 | 147.58409 | 41189 ft | 501 kts | 53° |
| 2026-05-08 04:24 | -35.82945 | 147.65274 | 41205 ft | 501 kts | 53° |
| 2026-05-08 04:25 | -35.78733 | 147.72155 | 41186 ft | 501 kts | 52° |
| 2026-05-08 04:25 | -35.74544 | 147.78983 | 41192 ft | 502 kts | 52° |
| 2026-05-08 04:26 | -35.70321 | 147.85855 | 41193 ft | 502 kts | 52° |
| 2026-05-08 04:26 | -35.66112 | 147.92690 | 41205 ft | 502 kts | 52° |
| 2026-05-08 04:27 | -35.61909 | 147.99503 | 41192 ft | 503 kts | 52° |
| 2026-05-08 04:27 | -35.57653 | 148.06386 | 41195 ft | 504 kts | 52° |
| 2026-05-08 04:28 | -35.53423 | 148.13215 | 41196 ft | 504 kts | 52° |
| 2026-05-08 04:28 | -35.49168 | 148.20075 | 41189 ft | 504 kts | 51° |
| 2026-05-08 04:29 | -35.44896 | 148.26944 | 41186 ft | 505 kts | 52° |
| 2026-05-08 04:29 | -35.40661 | 148.33740 | 40902 ft | 499 kts | 51° |
| 2026-05-08 04:30 | -35.38548 | 148.37124 | 40650 ft | 494 kts | 52° |
| 2026-05-08 04:30 | -35.36463 | 148.40461 | 40403 ft | 491 kts | 51° |
| 2026-05-08 04:30 | -35.34381 | 148.43792 | 40158 ft | 492 kts | 51° |
| 2026-05-08 04:30 | -35.32318 | 148.47086 | 39931 ft | 494 kts | 51° |
| 2026-05-08 04:31 | -35.30219 | 148.50436 | 39710 ft | 495 kts | 51° |
| 2026-05-08 04:31 | -35.28117 | 148.53787 | 39478 ft | 497 kts | 51° |
| 2026-05-08 04:31 | -35.26003 | 148.57154 | 39253 ft | 497 kts | 51° |
| 2026-05-08 04:31 | -35.23891 | 148.60514 | 39012 ft | 498 kts | 51° |
| 2026-05-08 04:32 | -35.21802 | 148.63836 | 38772 ft | 498 kts | 51° |
| 2026-05-08 04:32 | -35.19682 | 148.67203 | 38499 ft | 499 kts | 52° |
| 2026-05-08 04:32 | -35.17554 | 148.70581 | 38223 ft | 500 kts | 52° |
| 2026-05-08 04:32 | -35.15423 | 148.73959 | 37945 ft | 501 kts | 52° |
| 2026-05-08 04:33 | -35.13294 | 148.77331 | 37682 ft | 500 kts | 52° |
| 2026-05-08 04:33 | -35.11190 | 148.80660 | 37227 ft | 502 kts | 52° |
| 2026-05-08 04:33 | -35.09049 | 148.84044 | 36666 ft | 501 kts | 52° |
| 2026-05-08 04:33 | -35.06925 | 148.87398 | 36184 ft | 499 kts | 52° |
| 2026-05-08 04:34 | -35.04797 | 148.90757 | 35598 ft | 498 kts | 52° |
| 2026-05-08 04:34 | -35.02666 | 148.94118 | 35022 ft | 498 kts | 52° |
| 2026-05-08 04:34 | -35.00567 | 148.97424 | 34471 ft | 498 kts | 53° |
| 2026-05-08 04:34 | -34.98446 | 149.00760 | 33867 ft | 498 kts | 53° |
| 2026-05-08 04:35 | -34.96316 | 149.04108 | 33184 ft | 498 kts | 53° |
| 2026-05-08 04:35 | -34.94184 | 149.07457 | 32408 ft | 500 kts | 53° |
| 2026-05-08 04:35 | -34.92042 | 149.10818 | 31676 ft | 502 kts | 53° |
| 2026-05-08 04:35 | -34.89924 | 149.14140 | 31055 ft | 501 kts | 53° |
| 2026-05-08 04:36 | -34.87788 | 149.17486 | 30479 ft | 499 kts | 52° |
| 2026-05-08 04:36 | -34.85658 | 149.20818 | 29916 ft | 495 kts | 52° |
| 2026-05-08 04:36 | -34.83547 | 149.24117 | 29361 ft | 490 kts | 53° |
| 2026-05-08 04:36 | -34.81452 | 149.27387 | 28804 ft | 486 kts | 53° |
| 2026-05-08 04:37 | -34.79410 | 149.30571 | 28260 ft | 481 kts | 53° |
| 2026-05-08 04:37 | -34.77359 | 149.33768 | 27756 ft | 477 kts | 53° |
| 2026-05-08 04:37 | -34.75325 | 149.36941 | 27211 ft | 472 kts | 53° |
| 2026-05-08 04:37 | -34.73536 | 149.40278 | 26690 ft | 467 kts | 61° |
| 2026-05-08 04:38 | -34.71929 | 149.43696 | 26188 ft | 463 kts | 63° |
| 2026-05-08 04:38 | -34.70397 | 149.47120 | 25679 ft | 459 kts | 64° |
| 2026-05-08 04:38 | -34.68928 | 149.50491 | 25198 ft | 455 kts | 64° |
| 2026-05-08 04:38 | -34.67457 | 149.53902 | 24721 ft | 451 kts | 65° |
| 2026-05-08 04:39 | -34.66023 | 149.57231 | 24481 ft | 448 kts | 64° |
| 2026-05-08 04:39 | -34.64569 | 149.60591 | 24258 ft | 448 kts | 65° |
| 2026-05-08 04:39 | -34.63113 | 149.63938 | 24025 ft | 448 kts | 65° |
| 2026-05-08 04:39 | -34.61657 | 149.67276 | 23777 ft | 446 kts | 64° |
| 2026-05-08 04:40 | -34.60199 | 149.70606 | 23510 ft | 445 kts | 64° |
| 2026-05-08 04:40 | -34.58737 | 149.73936 | 23228 ft | 444 kts | 64° |
| 2026-05-08 04:40 | -34.57300 | 149.77204 | 22959 ft | 442 kts | 64° |
| 2026-05-08 04:40 | -34.55849 | 149.80500 | 22693 ft | 440 kts | 64° |
| 2026-05-08 04:41 | -34.54409 | 149.83766 | 22408 ft | 438 kts | 64° |
| 2026-05-08 04:41 | -34.52987 | 149.86992 | 22146 ft | 437 kts | 64° |
| 2026-05-08 04:41 | -34.51553 | 149.90243 | 21911 ft | 435 kts | 65° |
| 2026-05-08 04:41 | -34.50125 | 149.93480 | 21517 ft | 434 kts | 64° |
| 2026-05-08 04:42 | -34.48700 | 149.96701 | 20926 ft | 432 kts | 64° |
| 2026-05-08 04:42 | -34.47286 | 149.99894 | 20440 ft | 426 kts | 65° |
| 2026-05-08 04:42 | -34.45888 | 150.03050 | 19956 ft | 422 kts | 65° |
| 2026-05-08 04:42 | -34.44518 | 150.06140 | 19435 ft | 419 kts | 65° |
| 2026-05-08 04:43 | -34.43141 | 150.09245 | 18931 ft | 416 kts | 65° |
| 2026-05-08 04:43 | -34.41778 | 150.12323 | 18434 ft | 412 kts | 65° |
| 2026-05-08 04:43 | -34.40420 | 150.15377 | 17874 ft | 410 kts | 65° |
| 2026-05-08 04:43 | -34.39069 | 150.18414 | 17286 ft | 407 kts | 64° |
| 2026-05-08 04:44 | -34.37743 | 150.21394 | 16714 ft | 405 kts | 64° |
| 2026-05-08 04:44 | -34.36408 | 150.24386 | 16263 ft | 402 kts | 64° |
| 2026-05-08 04:44 | -34.35081 | 150.27359 | 16122 ft | 401 kts | 64° |
| 2026-05-08 04:44 | -34.33750 | 150.30342 | 16101 ft | 401 kts | 64° |
| 2026-05-08 04:45 | -34.32423 | 150.33309 | 16109 ft | 400 kts | 64° |
| 2026-05-08 04:45 | -34.31110 | 150.36244 | 16106 ft | 400 kts | 64° |
| 2026-05-08 04:45 | -34.29782 | 150.39219 | 16106 ft | 401 kts | 64° |
| 2026-05-08 04:45 | -34.28451 | 150.42197 | 16099 ft | 401 kts | 64° |
| 2026-05-08 04:46 | -34.27144 | 150.45112 | 15865 ft | 397 kts | 64° |
| 2026-05-08 04:46 | -34.25832 | 150.48042 | 15324 ft | 396 kts | 64° |
| 2026-05-08 04:46 | -34.24516 | 150.50984 | 14700 ft | 395 kts | 64° |
| 2026-05-08 04:46 | -34.23220 | 150.53882 | 14078 ft | 395 kts | 64° |
| 2026-05-08 04:47 | -34.21910 | 150.56807 | 13419 ft | 394 kts | 64° |
| 2026-05-08 04:47 | -34.20613 | 150.59699 | 12790 ft | 391 kts | 64° |
| 2026-05-08 04:47 | -34.19321 | 150.62576 | 12183 ft | 386 kts | 64° |
| 2026-05-08 04:47 | -34.18044 | 150.65421 | 11568 ft | 383 kts | 63° |
| 2026-05-08 04:48 | -34.16775 | 150.68239 | 10956 ft | 380 kts | 63° |
| 2026-05-08 04:48 | -34.15530 | 150.71007 | 10344 ft | 377 kts | 63° |
| 2026-05-08 04:48 | -34.14294 | 150.73751 | 10064 ft | 364 kts | 63° |
| 2026-05-08 04:48 | -34.13190 | 150.76429 | 9896 ft | 347 kts | 70° |
| 2026-05-08 04:49 | -34.12321 | 150.79086 | 9696 ft | 333 kts | 72° |
| 2026-05-08 04:49 | -34.11523 | 150.81634 | 9518 ft | 321 kts | 72° |
| 2026-05-08 04:49 | -34.10740 | 150.84119 | 9324 ft | 313 kts | 72° |
| 2026-05-08 04:49 | -34.10227 | 150.85741 | 9214 ft | 309 kts | 72° |
| 2026-05-08 04:50 | -34.07061 | 150.95466 | 8421 ft | 285 kts | 72° |
| 2026-05-08 04:51 | -34.06326 | 150.97685 | 8235 ft | 283 kts | 72° |
| 2026-05-08 04:51 | -34.05613 | 150.99897 | 8057 ft | 282 kts | 72° |
| 2026-05-08 04:51 | -34.04909 | 151.02103 | 7850 ft | 280 kts | 72° |
| 2026-05-08 04:51 | -34.04216 | 151.04272 | 7532 ft | 274 kts | 73° |
| 2026-05-08 04:52 | -34.03510 | 151.06415 | 7080 ft | 274 kts | 73° |
| 2026-05-08 04:52 | -34.02796 | 151.08514 | 6623 ft | 273 kts | 73° |
| 2026-05-08 04:52 | -34.02060 | 151.10626 | 6161 ft | 271 kts | 72° |
| 2026-05-08 04:52 | -34.01336 | 151.12720 | 5701 ft | 269 kts | 72° |
| 2026-05-08 04:53 | -34.00630 | 151.14808 | 5205 ft | 268 kts | 72° |
| 2026-05-08 04:53 | -33.99943 | 151.16894 | 4719 ft | 267 kts | 72° |
| 2026-05-08 04:53 | -33.99310 | 151.18968 | 4215 ft | 265 kts | 77° |
| 2026-05-08 04:53 | -33.98897 | 151.21125 | 3722 ft | 263 kts | 82° |
| 2026-05-08 04:54 | -33.98565 | 151.23298 | 3240 ft | 263 kts | 82° |
| 2026-05-08 04:54 | -33.98260 | 151.25468 | 2877 ft | 262 kts | 83° |
| 2026-05-08 04:54 | -33.97968 | 151.27614 | 2802 ft | 262 kts | 83° |
| 2026-05-08 04:54 | -33.97665 | 151.29778 | 2799 ft | 262 kts | 83° |
| 2026-05-08 04:55 | -33.97363 | 151.31950 | 2802 ft | 262 kts | 83° |
| 2026-05-08 04:55 | -33.97072 | 151.34125 | 2602 ft | 261 kts | 84° |
| 2026-05-08 04:55 | -33.96750 | 151.36241 | 2350 ft | 249 kts | 83° |
| 2026-05-08 04:55 | -33.96220 | 151.38135 | 2119 ft | 236 kts | 58° |
| 2026-05-08 04:56 | -33.95052 | 151.39394 | 1955 ft | 218 kts | 22° |
| 2026-05-08 04:56 | -33.93663 | 151.39695 | 1809 ft | 198 kts | 350° |
| 2026-05-08 04:56 | -33.92435 | 151.39217 | 1797 ft | 178 kts | 313° |
| 2026-05-08 04:56 | -33.91637 | 151.38144 | 1805 ft | 168 kts | 296° |
| 2026-05-08 04:57 | -33.91014 | 151.37016 | 1785 ft | 154 kts | 293° |
| 2026-05-08 04:57 | -33.90454 | 151.36006 | 1764 ft | 135 kts | 292° |
| 2026-05-08 04:57 | -33.90073 | 151.35050 | 1779 ft | 120 kts | 265° |
| 2026-05-08 04:57 | -33.90185 | 151.34092 | 1808 ft | 116 kts | 251° |
| 2026-05-08 04:58 | -33.90414 | 151.33164 | 1792 ft | 117 kts | 252° |
| 2026-05-08 04:58 | -33.90641 | 151.32219 | 1800 ft | 117 kts | 252° |
| 2026-05-08 04:58 | -33.90863 | 151.31279 | 1805 ft | 116 kts | 251° |
| 2026-05-08 04:58 | -33.91082 | 151.30354 | 1806 ft | 116 kts | 252° |
| 2026-05-08 04:59 | -33.91302 | 151.29421 | 1796 ft | 116 kts | 251° |
| 2026-05-08 04:59 | -33.91523 | 151.28483 | 1685 ft | 116 kts | 252° |
| 2026-05-08 04:59 | -33.91742 | 151.27552 | 1518 ft | 116 kts | 252° |
| 2026-05-08 04:59 | -33.91958 | 151.26633 | 1361 ft | 115 kts | 252° |
| 2026-05-08 05:00 | -33.92176 | 151.25710 | 1200 ft | 115 kts | 252° |
| 2026-05-08 05:00 | -33.92392 | 151.24788 | 1048 ft | 114 kts | 252° |
| 2026-05-08 05:00 | -33.92607 | 151.23875 | 893 ft | 114 kts | 252° |
| 2026-05-08 05:00 | -33.92824 | 151.22951 | 739 ft | 114 kts | 251° |
| 2026-05-08 05:01 | -33.93041 | 151.22021 | 594 ft | 116 kts | 253° |
| 2026-05-08 05:01 | -33.93264 | 151.21067 | 463 ft | 120 kts | 254° |
| 2026-05-08 05:01 | -33.93498 | 151.20100 | 261 ft | 121 kts | 254° |
| 2026-05-08 05:01 | -33.93722 | 151.19129 | 36 ft | 117 kts | 257° |
| 2026-05-08 05:02 | -33.94023 | 151.18201 | 418 ft | 135 kts | 261° |
| 2026-05-08 05:02 | -33.94333 | 151.16960 | 1141 ft | 180 kts | 251° |
| 2026-05-08 05:02 | -33.94759 | 151.15501 | 2681 ft | 174 kts | 236° |
| 2026-05-08 05:02 | -33.95689 | 151.14701 | 4627 ft | 164 kts | 198° |
| 2026-05-08 05:03 | -33.96822 | 151.14794 | 5916 ft | 165 kts | 163° |
| 2026-05-08 05:03 | -33.97643 | 151.15695 | 6404 ft | 159 kts | 133° |
| 2026-05-08 05:03 | -33.97972 | 151.16983 | 6141 ft | 176 kts | 102° |
| 2026-05-08 05:03 | -33.97846 | 151.18546 | 5674 ft | 196 kts | 89° |
| 2026-05-08 05:04 | -33.97597 | 151.20223 | 5183 ft | 209 kts | 87° |
| 2026-05-08 05:04 | -33.97337 | 151.21995 | 4705 ft | 219 kts | 86° |
| 2026-05-08 05:04 | -33.97090 | 151.23806 | 4275 ft | 225 kts | 86° |
| 2026-05-08 05:04 | -33.96856 | 151.25668 | 3938 ft | 224 kts | 86° |
| 2026-05-08 05:05 | -33.96641 | 151.27529 | 3580 ft | 225 kts | 86° |
| 2026-05-08 05:05 | -33.96450 | 151.29405 | 3237 ft | 225 kts | 86° |
| 2026-05-08 05:05 | -33.96285 | 151.31222 | 3077 ft | 215 kts | 86° |
| 2026-05-08 05:05 | -33.96123 | 151.32967 | 2936 ft | 203 kts | 87° |
| 2026-05-08 05:06 | -33.95933 | 151.34605 | 2813 ft | 192 kts | 81° |
| 2026-05-08 05:06 | -33.95249 | 151.35937 | 2683 ft | 186 kts | 36° |
| 2026-05-08 05:06 | -33.94105 | 151.36452 | 2480 ft | 171 kts | 357° |
| 2026-05-08 05:06 | -33.92932 | 151.36398 | 2157 ft | 166 kts | 345° |
| 2026-05-08 05:07 | -33.91940 | 151.35909 | 1868 ft | 149 kts | 308° |
| 2026-05-08 05:07 | -33.91281 | 151.34990 | 1808 ft | 143 kts | 296° |
| 2026-05-08 05:07 | -33.90731 | 151.33992 | 1799 ft | 139 kts | 287° |
| 2026-05-08 05:07 | -33.90593 | 151.32911 | 1795 ft | 132 kts | 263° |
| 2026-05-08 05:08 | -33.90758 | 151.31828 | 1800 ft | 130 kts | 253° |
| 2026-05-08 05:08 | -33.90990 | 151.30767 | 1804 ft | 130 kts | 252° |
| 2026-05-08 05:08 | -33.91232 | 151.29722 | 1797 ft | 129 kts | 252° |
| 2026-05-08 05:08 | -33.91478 | 151.28680 | 1713 ft | 131 kts | 252° |
| 2026-05-08 05:09 | -33.91725 | 151.27626 | 1527 ft | 130 kts | 252° |
| 2026-05-08 05:09 | -33.91967 | 151.26594 | 1355 ft | 127 kts | 252° |
| 2026-05-08 05:09 | -33.92207 | 151.25577 | 1172 ft | 126 kts | 253° |
| 2026-05-08 05:09 | -33.92447 | 151.24557 | 1017 ft | 126 kts | 253° |
| 2026-05-08 05:10 | -33.92686 | 151.23539 | 833 ft | 126 kts | 253° |
| 2026-05-08 05:10 | -33.93177 | 151.21451 | 503 ft | 129 kts | 255° |
| 2026-05-08 05:10 | -33.93420 | 151.20419 | 323 ft | 129 kts | 254° |
| 2026-05-08 05:11 | -33.93665 | 151.19344 | 123 ft | 136 kts | 255° |
| 2026-05-08 05:11 | -33.93843 | 151.18610 | 48 ft | 135 kts | 254° |
| 2026-05-08 05:11 | -33.94089 | 151.17567 | 28 ft | 64 kts | 254° |
| 2026-05-08 05:11 | -33.94145 | 151.17298 | 28 ft | 15 kts | 279° |
| 2026-05-08 05:12 | -33.94140 | 151.17284 | 31 ft | 1 kts | 297° |
| 2026-05-08 05:12 | -33.94133 | 151.17276 | 30 ft | 1 kts | 316° |
| 2026-05-08 05:12 | -33.94126 | 151.17272 | 27 ft | 3 kts | 327° |
| 2026-05-08 05:12 | -33.94089 | 151.17253 | 31 ft | 9 kts | 342° |
| 2026-05-08 05:13 | -33.94013 | 151.17230 | 28 ft | 13 kts | 348° |
| 2026-05-08 05:13 | -33.93908 | 151.17204 | 21 ft | 18 kts | 349° |
| 2026-05-08 05:13 | -33.93774 | 151.17171 | 20 ft | 20 kts | 348° |
| 2026-05-08 05:13 | -33.93641 | 151.17137 | 28 ft | 19 kts | 348° |
| 2026-05-08 05:14 | -33.93516 | 151.17077 | 30 ft | 19 kts | 307° |
| 2026-05-08 05:14 | -33.93517 | 151.16954 | 26 ft | 15 kts | 258° |
| 2026-05-08 05:14 | -33.93545 | 151.16856 | 27 ft | 11 kts | 242° |
| 2026-05-08 05:14 | -33.93564 | 151.16817 | 27 ft | 0 kts | 238° |